createdAt,value
2023-02-05T00:02:10.777Z,6.93
2023-02-05T00:04:39.524Z,5.30
2023-02-05T00:07:09.420Z,5.15
2023-02-05T00:09:40.852Z,4.53
2023-02-05T00:12:09.395Z,5.40
2023-02-05T00:14:37.522Z,4.80
2023-02-05T00:17:05.795Z,6.53
2023-02-05T00:19:33.870Z,5.10
2023-02-05T00:22:01.984Z,6.75
2023-02-05T00:24:31.562Z,7.38
2023-02-05T00:26:59.702Z,5.35
2023-02-05T00:29:28.108Z,5.30
2023-02-05T00:31:56.221Z,5.28
2023-02-05T00:34:25.517Z,6.28
2023-02-05T00:36:53.614Z,5.70
2023-02-05T00:39:22.759Z,4.32
2023-02-05T00:41:52.722Z,5.70
2023-02-05T00:44:20.810Z,3.63
2023-02-05T00:46:49.007Z,5.97
2023-02-05T00:49:17.176Z,3.33
2023-02-05T00:51:45.297Z,4.65
2023-02-05T00:54:13.456Z,6.18
2023-02-05T00:56:41.575Z,5.45
2023-02-05T00:59:11.739Z,4.35
2023-02-05T01:01:40.079Z,5.43
2023-02-05T01:04:08.276Z,7.38
2023-02-05T01:06:36.383Z,6.30
2023-02-05T01:09:04.730Z,5.80
2023-02-05T01:11:33.024Z,4.40
2023-02-05T01:14:01.281Z,5.32
2023-02-05T01:16:30.844Z,5.80
2023-02-05T01:18:59.930Z,7.35
2023-02-05T01:21:29.320Z,4.90
2023-02-05T01:23:57.858Z,3.90
2023-02-05T01:26:26.060Z,5.55
2023-02-05T01:28:54.399Z,5.03
2023-02-05T01:31:23.591Z,4.00
2023-02-05T01:33:53.169Z,5.43
2023-02-05T01:36:21.542Z,6.15
2023-02-05T01:38:49.913Z,7.78
2023-02-05T01:41:17.988Z,7.22
2023-02-05T01:44:07.603Z,6.43
2023-02-05T01:46:36.826Z,4.90
2023-02-05T01:49:08.132Z,4.47
2023-02-05T01:51:38.620Z,4.88
2023-02-05T01:54:08.341Z,6.57
2023-02-05T01:56:40.622Z,4.75
2023-02-05T01:59:12.507Z,6.13
2023-02-05T02:01:41.908Z,6.88
2023-02-05T02:04:14.805Z,5.57
2023-02-05T02:06:42.989Z,7.88
2023-02-05T02:09:12.229Z,5.10
2023-02-05T02:11:43.774Z,6.20
2023-02-05T02:14:13.168Z,6.20
2023-02-05T02:16:42.438Z,6.05
2023-02-05T02:19:19.729Z,5.38
2023-02-05T02:22:19.033Z,6.10
2023-02-05T02:25:24.855Z,4.95
2023-02-05T02:27:58.150Z,7.30
2023-02-05T02:30:32.702Z,5.90
2023-02-05T02:33:08.498Z,4.50
2023-02-05T02:35:47.093Z,7.03
2023-02-05T02:38:23.270Z,8.05
2023-02-05T02:40:55.048Z,6.85
2023-02-05T02:43:31.608Z,5.05
2023-02-05T02:46:04.213Z,7.15
2023-02-05T02:48:34.685Z,4.70
2023-02-05T02:51:04.396Z,7.65
2023-02-05T02:53:37.624Z,4.07
2023-02-05T02:56:07.365Z,4.93
2023-02-05T02:58:43.775Z,4.95
2023-02-05T03:01:13.942Z,3.97
2023-02-05T03:03:46.939Z,4.38
2023-02-05T03:06:16.551Z,6.28
2023-02-05T03:08:51.501Z,4.47
2023-02-05T03:11:20.022Z,7.60
2023-02-05T03:13:49.830Z,8.43
2023-02-05T03:16:22.283Z,5.80
2023-02-05T03:18:51.001Z,6.93
2023-02-05T03:21:25.405Z,5.30
2023-02-05T03:23:53.570Z,7.38
2023-02-05T03:26:27.505Z,6.55
2023-02-05T03:29:09.807Z,8.98
2023-02-05T03:31:50.955Z,6.15
2023-02-05T03:34:30.724Z,5.57
2023-02-05T03:37:09.850Z,5.57
2023-02-05T03:39:53.708Z,4.70
2023-02-05T03:42:35.284Z,5.15
2023-02-05T03:45:17.760Z,5.30
2023-02-05T03:48:00.298Z,6.13
2023-02-05T03:50:33.344Z,4.88
2023-02-05T03:53:09.964Z,6.10
2023-02-05T03:55:46.258Z,5.93
2023-02-05T03:58:19.942Z,5.93
2023-02-05T04:00:49.969Z,6.80
2023-02-05T04:03:18.899Z,8.20
2023-02-05T04:05:47.229Z,5.88
2023-02-05T04:08:15.701Z,6.63
2023-02-05T04:10:48.936Z,5.25
2023-02-05T04:13:17.275Z,7.43
2023-02-05T04:15:45.802Z,8.07
2023-02-05T04:18:18.822Z,7.03
2023-02-05T04:20:48.002Z,5.55
2023-02-05T04:23:19.765Z,7.32
2023-02-05T04:25:48.310Z,5.32
2023-02-05T04:28:19.968Z,7.75
2023-02-05T04:30:48.982Z,6.00
2023-02-05T04:33:19.061Z,6.78
2023-02-05T04:35:47.241Z,5.50
2023-02-05T04:38:16.111Z,7.45
2023-02-05T04:40:44.264Z,6.05
2023-02-05T04:43:12.368Z,6.47
2023-02-05T04:45:40.692Z,5.93
2023-02-05T04:48:09.009Z,5.90
2023-02-05T04:50:39.209Z,6.60
2023-02-05T04:53:07.548Z,6.18
2023-02-05T04:55:36.095Z,4.57
2023-02-05T04:58:04.476Z,8.32
2023-02-05T05:00:32.664Z,7.15
2023-02-05T05:03:00.889Z,5.57
2023-02-05T05:05:29.035Z,7.00
2023-02-05T05:08:00.782Z,6.35
2023-02-05T05:10:29.185Z,6.47
2023-02-05T05:12:57.330Z,7.03
2023-02-05T05:15:25.439Z,6.00
2023-02-05T05:17:53.600Z,6.78
2023-02-05T05:20:21.740Z,7.22
2023-02-05T05:22:49.882Z,8.82
2023-02-05T05:25:19.410Z,8.13
2023-02-05T05:27:47.732Z,6.85
2023-02-05T05:30:16.033Z,5.97
2023-02-05T05:32:44.283Z,6.00
2023-02-05T05:35:12.534Z,5.38
2023-02-05T05:37:40.790Z,6.50
2023-02-05T05:40:28.494Z,6.40
2023-02-05T05:43:15.239Z,7.05
2023-02-05T05:45:43.498Z,5.30
2023-02-05T05:48:11.585Z,7.93
2023-02-05T05:50:39.778Z,6.00
2023-02-05T05:53:08.031Z,8.35
2023-02-05T05:55:36.382Z,6.20
2023-02-05T05:58:07.096Z,8.30
2023-02-05T06:00:35.933Z,7.00
2023-02-05T06:03:05.012Z,6.68
2023-02-05T06:05:33.824Z,7.63
2023-02-05T06:08:02.150Z,5.13
2023-02-05T06:10:30.316Z,6.30
2023-02-05T06:12:58.390Z,6.47
2023-02-05T06:15:28.261Z,5.53
2023-02-05T06:17:56.421Z,6.82
2023-02-05T06:20:24.974Z,8.93
2023-02-05T06:22:53.237Z,6.90
2023-02-05T06:25:21.402Z,6.25
2023-02-05T06:27:49.483Z,8.48
2023-02-05T06:30:18.059Z,8.25
2023-02-05T06:32:47.544Z,9.90
2023-02-05T06:35:15.861Z,8.32
2023-02-05T06:37:47.888Z,8.05
2023-02-05T06:40:18.121Z,7.53
2023-02-05T06:42:46.934Z,10.50
2023-02-05T06:45:15.618Z,8.88
2023-02-05T06:47:44.058Z,10.07
2023-02-05T06:50:14.342Z,8.57
2023-02-05T06:52:42.926Z,8.18
2023-02-05T06:55:11.100Z,7.50
2023-02-05T06:57:39.544Z,8.70
2023-02-05T07:00:09.189Z,7.20
2023-02-05T07:02:37.659Z,7.32
2023-02-05T07:05:05.909Z,9.52
2023-02-05T07:07:35.562Z,8.45
2023-02-05T07:10:03.694Z,9.63
2023-02-05T07:12:32.056Z,9.00
2023-02-05T07:15:00.221Z,10.57
2023-02-05T07:17:28.491Z,11.82
2023-02-05T07:19:56.569Z,10.90
2023-02-05T07:22:24.851Z,9.73
2023-02-05T07:24:54.343Z,10.27
2023-02-05T07:27:22.736Z,6.55
2023-02-05T07:29:50.916Z,9.20
2023-02-05T07:32:19.374Z,9.65
2023-02-05T07:34:47.529Z,8.82
2023-02-05T07:37:15.800Z,7.10
2023-02-05T07:39:44.068Z,8.07
2023-02-05T07:42:13.556Z,13.02
2023-02-05T07:44:50.127Z,8.93
2023-02-05T07:47:18.274Z,9.27
2023-02-05T07:49:46.718Z,10.88
2023-02-05T07:52:14.837Z,9.65
2023-02-05T07:54:43.279Z,8.40
2023-02-05T07:57:12.803Z,9.55
2023-02-05T07:59:41.074Z,7.95
2023-02-05T08:02:10.870Z,8.15
2023-02-05T08:04:39.223Z,9.65
2023-02-05T08:07:07.446Z,8.65
2023-02-05T08:09:37.274Z,6.40
2023-02-05T08:12:06.148Z,8.13
2023-02-05T08:14:36.884Z,8.60
2023-02-05T08:17:07.117Z,7.78
2023-02-05T08:19:35.703Z,13.27
2023-02-05T08:22:03.823Z,9.07
2023-02-05T08:24:33.006Z,9.25
2023-02-05T08:27:01.232Z,9.13
2023-02-05T08:29:29.673Z,10.18
2023-02-05T08:31:59.267Z,9.50
2023-02-05T08:34:27.809Z,9.27
2023-02-05T08:36:57.705Z,6.93
2023-02-05T08:39:27.020Z,8.20
2023-02-05T08:41:57.042Z,7.88
2023-02-05T08:44:25.764Z,9.32
2023-02-05T08:46:53.915Z,9.20
2023-02-05T08:49:23.845Z,8.88
2023-02-05T08:51:52.647Z,11.10
2023-02-05T08:54:20.970Z,10.68
2023-02-05T08:56:51.806Z,8.95
2023-02-05T08:59:20.717Z,9.10
2023-02-05T09:01:49.683Z,6.90
2023-02-05T09:04:19.786Z,8.00
2023-02-05T09:06:49.565Z,10.50
2023-02-05T09:09:18.118Z,7.15
2023-02-05T09:11:47.713Z,6.95
2023-02-05T09:14:16.354Z,6.05
2023-02-05T09:16:44.644Z,8.60
2023-02-05T09:19:12.804Z,7.18
2023-02-05T09:21:42.389Z,7.05
2023-02-05T09:24:11.899Z,10.05
2023-02-05T09:26:40.042Z,7.45
2023-02-05T09:29:08.139Z,8.80
2023-02-05T09:31:37.093Z,9.18
2023-02-05T09:34:05.268Z,7.45
2023-02-05T09:36:33.564Z,7.22
2023-02-05T09:39:14.747Z,6.18
2023-02-05T09:41:58.189Z,7.55
2023-02-05T09:44:44.538Z,9.00
2023-02-05T09:47:20.343Z,8.43
2023-02-05T09:49:53.976Z,8.60
2023-02-05T09:52:27.372Z,9.95
2023-02-05T09:55:00.230Z,7.72
2023-02-05T09:57:36.997Z,10.23
2023-02-05T10:00:13.838Z,5.80
2023-02-05T10:02:50.214Z,5.68
2023-02-05T10:05:27.228Z,7.30
2023-02-05T10:08:05.285Z,7.28
2023-02-05T10:10:40.946Z,6.45
2023-02-05T10:13:33.145Z,7.82
2023-02-05T10:16:30.369Z,6.15
2023-02-05T10:19:15.468Z,6.00
2023-02-05T10:22:02.688Z,11.02
2023-02-05T10:24:49.458Z,5.05
2023-02-05T10:27:21.545Z,8.25
2023-02-05T10:30:03.968Z,7.82
2023-02-05T10:32:43.605Z,8.73
2023-02-05T10:35:22.851Z,8.30
2023-02-05T10:37:55.546Z,6.22
2023-02-05T10:40:29.510Z,9.67
2023-02-05T10:43:04.138Z,5.97
2023-02-05T10:45:34.584Z,5.97
2023-02-05T10:51:08.105Z,5.82
2023-02-05T10:53:57.063Z,5.30
2023-02-05T10:56:25.276Z,6.18
2023-02-05T10:58:55.763Z,5.82
2023-02-05T11:01:30.754Z,5.95
2023-02-05T11:04:02.599Z,6.60
2023-02-05T11:06:37.065Z,6.78
2023-02-05T11:09:27.578Z,5.15
2023-02-05T11:11:57.472Z,7.28
2023-02-05T11:14:32.511Z,6.78
2023-02-05T11:17:07.167Z,8.52
2023-02-05T11:19:36.169Z,6.72
2023-02-05T11:22:06.197Z,8.00
2023-02-05T11:24:36.789Z,8.18
2023-02-05T11:27:28.871Z,9.07
2023-02-05T11:29:59.997Z,10.48
2023-02-05T11:32:37.088Z,7.18
2023-02-05T11:35:26.928Z,7.93
2023-02-05T11:38:07.597Z,7.97
2023-02-05T11:40:37.282Z,7.88
2023-02-05T11:43:07.983Z,20.45
2023-02-05T11:45:39.360Z,16.40
2023-02-05T11:48:26.960Z,15.32
2023-02-05T11:50:55.285Z,10.95
2023-02-05T11:53:24.643Z,11.70
2023-02-05T11:55:58.276Z,10.60
2023-02-05T11:58:36.503Z,10.32
2023-02-05T12:01:08.019Z,9.48
2023-02-05T12:03:38.230Z,8.82
2023-02-05T12:06:17.877Z,9.00
2023-02-05T12:08:50.085Z,7.93
2023-02-05T12:12:06.433Z,10.18
2023-02-05T12:14:43.158Z,10.52
2023-02-05T12:17:34.283Z,9.48
2023-02-05T12:20:15.160Z,13.15
2023-02-05T12:23:03.256Z,12.30
2023-02-05T12:25:40.793Z,11.63
2023-02-05T12:28:26.974Z,10.65
2023-02-05T12:31:05.943Z,15.13
2023-02-05T12:34:08.476Z,10.38
2023-02-05T12:36:50.055Z,14.00
2023-02-05T12:39:28.593Z,13.80
2023-02-05T12:42:07.662Z,15.43
2023-02-05T12:44:49.842Z,14.63
2023-02-05T12:47:35.056Z,15.98
2023-02-05T12:50:21.780Z,13.05
2023-02-05T12:53:05.624Z,15.57
2023-02-05T12:55:45.282Z,14.40
2023-02-05T12:58:15.625Z,14.65
2023-02-05T13:00:50.339Z,12.20
2023-02-05T13:03:26.391Z,12.80
2023-02-05T13:05:59.363Z,11.73
2023-02-05T13:08:42.770Z,11.45
2023-02-05T13:11:17.633Z,12.90
2023-02-05T13:13:52.137Z,13.25
2023-02-05T13:16:22.743Z,12.07
2023-02-05T13:19:00.524Z,13.65
2023-02-05T13:21:47.278Z,13.18
2023-02-05T13:24:44.649Z,12.77
2023-02-05T13:27:40.188Z,14.32
2023-02-05T13:30:15.572Z,13.45
2023-02-05T13:32:48.262Z,14.30
2023-02-05T13:35:18.333Z,15.77
2023-02-05T13:38:10.252Z,14.90
2023-02-05T13:41:08.668Z,15.82
2023-02-05T13:44:00.787Z,14.30
2023-02-05T13:46:56.694Z,13.77
2023-02-05T13:50:00.049Z,13.88
2023-02-05T13:52:49.258Z,13.27
2023-02-05T13:55:43.622Z,12.05
2023-02-05T13:58:21.356Z,11.80
2023-02-05T14:00:59.135Z,11.95
2023-02-05T14:03:35.100Z,13.52
2023-02-05T14:06:15.918Z,13.55
2023-02-05T14:08:44.489Z,12.88
2023-02-05T14:11:12.961Z,16.73
2023-02-05T14:13:42.546Z,13.43
2023-02-05T14:16:36.371Z,12.82
2023-02-05T14:19:13.199Z,12.93
2023-02-05T14:22:07.857Z,15.20
2023-02-05T14:24:48.300Z,17.92
2023-02-05T14:27:55.509Z,16.00
2023-02-05T14:30:50.421Z,16.95
2023-02-05T14:36:33.084Z,16.10
2023-02-05T14:39:07.171Z,17.77
2023-02-05T14:44:26.444Z,17.15
2023-02-05T14:47:03.459Z,15.70
2023-02-05T14:49:39.618Z,16.45
2023-02-05T14:52:21.235Z,14.35
2023-02-05T14:54:54.425Z,18.60
2023-02-05T14:57:28.951Z,17.80
2023-02-05T15:00:00.223Z,17.20
2023-02-05T15:02:56.379Z,15.57
2023-02-05T15:05:32.561Z,23.27
2023-02-05T15:08:09.438Z,20.52
2023-02-05T15:10:48.117Z,19.48
2023-02-05T15:13:19.246Z,16.48
2023-02-05T15:16:21.083Z,17.55
2023-02-05T15:18:54.188Z,17.98
2023-02-05T15:21:27.174Z,15.68
2023-02-05T15:24:02.022Z,15.32
2023-02-05T15:26:40.602Z,16.45
2023-02-05T15:29:14.481Z,18.15
2023-02-05T15:31:47.153Z,21.48
2023-02-05T15:34:33.399Z,19.45
2023-02-05T15:37:06.527Z,21.58
2023-02-05T15:39:46.177Z,22.57
2023-02-05T15:42:20.116Z,16.92
2023-02-05T15:44:48.613Z,17.63
2023-02-05T15:47:22.055Z,15.48
2023-02-05T15:49:53.686Z,19.70
2023-02-05T15:52:24.269Z,18.75
2023-02-05T15:54:55.488Z,17.00
2023-02-05T15:57:27.865Z,20.80
2023-02-05T15:59:57.567Z,21.52
2023-02-05T16:02:28.559Z,19.13
2023-02-05T16:05:01.306Z,19.48
2023-02-05T16:07:32.545Z,20.75
2023-02-05T16:10:04.153Z,17.35
2023-02-05T16:12:32.421Z,18.45
2023-02-05T16:15:06.553Z,19.10
2023-02-05T16:17:40.792Z,18.73
2023-02-05T16:22:47.507Z,18.25
2023-02-05T16:25:30.677Z,19.67
2023-02-05T16:28:01.061Z,21.08
2023-02-05T16:30:35.131Z,17.67
2023-02-05T16:33:06.044Z,18.92
2023-02-05T16:35:38.647Z,19.08
2023-02-05T16:38:12.197Z,16.50
2023-02-05T16:40:44.073Z,16.73
2023-02-05T16:43:26.415Z,16.77
2023-02-05T16:46:22.956Z,17.17
2023-02-05T16:48:53.208Z,19.48
2023-02-05T16:51:35.534Z,22.30
2023-02-05T16:54:20.288Z,27.42
2023-02-05T16:56:55.533Z,22.98
2023-02-05T16:59:26.054Z,21.20
2023-02-05T17:01:55.151Z,20.17
2023-02-05T17:04:28.390Z,19.83
2023-02-05T17:07:00.671Z,19.97
2023-02-05T17:09:33.914Z,19.92
2023-02-05T17:12:41.392Z,21.20
2023-02-05T17:15:46.147Z,24.65
2023-02-05T17:18:23.156Z,20.13
2023-02-05T17:20:51.654Z,19.85
2023-02-05T17:23:21.097Z,20.63
2023-02-05T17:25:55.660Z,16.27
2023-02-05T17:28:25.995Z,17.95
2023-02-05T17:30:58.068Z,18.67
2023-02-05T17:33:28.117Z,17.63
2023-02-05T17:35:56.483Z,19.95
2023-02-05T17:38:25.929Z,18.50
2023-02-05T17:41:14.353Z,22.00
2023-02-05T17:43:42.791Z,18.58
2023-02-05T17:46:14.370Z,18.83
2023-02-05T17:48:44.650Z,18.75
2023-02-05T17:51:20.213Z,19.83
2023-02-05T17:53:50.835Z,21.02
2023-02-05T17:56:21.525Z,19.45
2023-02-05T17:58:50.561Z,19.50
2023-02-05T18:01:20.240Z,19.25
2023-02-05T18:03:48.819Z,18.20
2023-02-05T18:06:19.180Z,19.38
2023-02-05T18:08:47.378Z,22.55
2023-02-05T18:11:16.911Z,18.40
2023-02-05T18:13:44.987Z,21.17
2023-02-05T18:16:13.257Z,19.25
2023-02-05T18:18:41.578Z,19.75
2023-02-05T18:21:09.932Z,20.10
2023-02-05T18:23:38.516Z,18.40
2023-02-05T18:26:08.257Z,20.90
2023-02-05T18:28:38.138Z,18.80
2023-02-05T18:31:08.321Z,22.50
2023-02-05T18:33:36.862Z,22.45
2023-02-05T18:36:07.107Z,23.38
2023-02-05T18:38:35.729Z,23.77
2023-02-05T18:41:08.619Z,21.35
2023-02-05T18:43:39.119Z,21.75
2023-02-05T18:46:08.574Z,23.25
2023-02-05T18:48:37.294Z,22.10
2023-02-05T18:51:06.446Z,21.52
2023-02-05T18:53:35.142Z,23.05
2023-02-05T18:56:04.347Z,28.88
2023-02-05T18:58:32.571Z,28.17
2023-02-05T19:01:09.028Z,29.38
2023-02-05T19:03:38.934Z,33.50
2023-02-05T19:06:07.906Z,30.15
2023-02-05T19:08:36.484Z,33.92
2023-02-05T19:11:07.962Z,31.42
2023-02-05T19:13:37.308Z,27.10
2023-02-05T19:16:09.181Z,29.20
2023-02-05T19:18:37.305Z,28.65
2023-02-05T19:21:06.807Z,28.83
2023-02-05T19:23:35.705Z,32.60
2023-02-05T19:26:05.069Z,32.13
2023-02-05T19:28:33.187Z,28.00
2023-02-05T19:31:04.110Z,29.45
2023-02-05T19:33:34.983Z,30.08
2023-02-05T19:36:04.879Z,28.08
2023-02-05T19:38:35.335Z,29.92
2023-02-05T19:41:07.658Z,29.52
2023-02-05T19:43:35.949Z,28.45
2023-02-05T19:46:04.589Z,30.77
2023-02-05T19:48:34.554Z,31.88
2023-02-05T19:51:05.590Z,31.33
2023-02-05T19:53:33.945Z,28.98
2023-02-05T19:56:07.243Z,26.70
2023-02-05T19:58:35.717Z,28.20
2023-02-05T20:01:12.272Z,26.83
2023-02-05T20:03:42.336Z,27.38
2023-02-05T20:06:11.641Z,31.98
2023-02-05T20:08:39.904Z,30.25
2023-02-05T20:11:08.156Z,33.88
2023-02-05T20:13:38.466Z,27.02
2023-02-05T20:16:10.598Z,26.95
2023-02-05T20:18:39.164Z,24.83
2023-02-05T20:21:10.458Z,26.45
2023-02-05T20:23:39.177Z,26.92
2023-02-05T20:26:07.873Z,28.35
2023-02-05T20:28:59.263Z,28.48
2023-02-05T20:31:34.313Z,24.17
2023-02-05T20:34:03.346Z,23.85
2023-02-05T20:36:34.682Z,30.90
2023-02-05T20:39:05.969Z,30.00
2023-02-05T20:41:34.858Z,27.55
2023-02-05T20:44:04.046Z,31.52
2023-02-05T20:46:32.343Z,26.13
2023-02-05T20:49:01.543Z,23.30
2023-02-05T20:51:30.147Z,27.58
2023-02-05T20:54:00.541Z,24.20
2023-02-05T20:56:30.545Z,29.23
2023-02-05T20:59:00.652Z,23.85
2023-02-05T21:01:30.655Z,19.80
2023-02-05T21:04:01.108Z,25.10
2023-02-05T21:06:31.157Z,23.95
2023-02-05T21:09:00.702Z,27.20
2023-02-05T21:11:30.063Z,23.02
2023-02-05T21:13:59.067Z,20.63
2023-02-05T21:16:28.536Z,39.95
2023-02-05T21:18:56.991Z,28.35
2023-02-05T21:21:26.961Z,31.17
2023-02-05T21:23:55.999Z,27.40
2023-02-05T21:26:27.841Z,27.48
2023-02-05T21:28:57.622Z,25.00
2023-02-05T21:31:27.240Z,28.70
2023-02-05T21:33:55.363Z,27.50
2023-02-05T21:36:24.505Z,37.15
2023-02-05T21:38:52.581Z,33.50
2023-02-05T21:41:21.316Z,30.15
2023-02-05T21:43:52.303Z,23.98
2023-02-05T21:46:21.631Z,30.60
2023-02-05T21:48:51.011Z,27.33
2023-02-05T21:51:21.017Z,24.17
2023-02-05T21:53:52.045Z,25.10
2023-02-05T21:56:20.704Z,23.30
2023-02-05T21:58:50.420Z,33.42
2023-02-05T22:01:20.901Z,38.65
2023-02-05T22:03:51.008Z,26.70
2023-02-05T22:06:19.685Z,31.60
2023-02-05T22:08:50.439Z,22.65
2023-02-05T22:11:21.274Z,27.80
2023-02-05T22:13:52.303Z,20.95
2023-02-05T22:16:22.187Z,20.60
2023-02-05T22:18:50.860Z,24.98
2023-02-05T22:21:21.838Z,20.45
2023-02-05T22:23:51.908Z,23.65
2023-02-05T22:26:22.891Z,25.67
2023-02-05T22:28:52.927Z,18.83
2023-02-05T22:31:22.224Z,20.15
2023-02-05T22:33:51.648Z,27.98
2023-02-05T22:36:22.250Z,26.52
2023-02-05T22:38:51.946Z,20.58
2023-02-05T22:41:22.053Z,26.80
2023-02-05T22:43:50.876Z,22.85
2023-02-05T22:46:23.436Z,25.50
2023-02-05T22:48:53.032Z,19.23
2023-02-05T22:51:23.377Z,21.35
2023-02-05T22:53:53.521Z,25.10
2023-02-05T22:56:22.663Z,24.02
2023-02-05T22:58:51.836Z,27.55
2023-02-05T23:01:24.063Z,24.20
2023-02-05T23:03:52.560Z,26.08
2023-02-05T23:06:23.756Z,24.23
2023-02-05T23:08:53.114Z,24.67
2023-02-05T23:11:22.128Z,19.48
2023-02-05T23:13:50.838Z,25.25
2023-02-05T23:16:23.094Z,36.88
2023-02-05T23:18:53.150Z,30.42
2023-02-05T23:21:23.556Z,29.92
2023-02-05T23:23:52.680Z,25.70
2023-02-05T23:26:22.596Z,17.70
2023-02-05T23:28:52.242Z,26.30
2023-02-05T23:31:23.222Z,21.75
2023-02-05T23:33:51.535Z,18.05
2023-02-05T23:36:20.312Z,21.55
2023-02-05T23:38:48.886Z,27.35
2023-02-05T23:41:35.799Z,22.15
2023-02-05T23:44:06.498Z,27.25
2023-02-05T23:46:37.240Z,21.80
2023-02-05T23:49:06.545Z,27.58
2023-02-05T23:51:35.322Z,24.17
2023-02-05T23:54:04.127Z,22.25
2023-02-05T23:56:32.420Z,26.88
2023-02-05T23:59:00.976Z,23.30
